sensor_id;sensor_type;location;lat;lon;timestamp;P1;durP1;ratioP1;P2;durP2;ratioP2
31347;SDS011;21711;49.708;18.568;2022-11-20T00:01:27;33.15;;;13.10;;
31347;SDS011;21711;49.708;18.568;2022-11-20T00:03:55;32.00;;;12.67;;
31347;SDS011;21711;49.708;18.568;2022-11-20T00:06:27;33.63;;;13.63;;
31347;SDS011;21711;49.708;18.568;2022-11-20T00:08:55;34.17;;;15.10;;
31347;SDS011;21711;49.708;18.568;2022-11-20T00:11:27;31.47;;;13.87;;
31347;SDS011;21711;49.708;18.568;2022-11-20T00:13:56;33.27;;;13.43;;
31347;SDS011;21711;49.708;18.568;2022-11-20T00:16:27;33.28;;;12.80;;
31347;SDS011;21711;49.708;18.568;2022-11-20T00:21:25;24.33;;;11.30;;
31347;SDS011;21711;49.708;18.568;2022-11-20T00:23:55;32.45;;;11.93;;
31347;SDS011;21711;49.708;18.568;2022-11-20T00:26:25;30.33;;;11.65;;
31347;SDS011;21711;49.708;18.568;2022-11-20T00:28:55;37.33;;;14.00;;
31347;SDS011;21711;49.708;18.568;2022-11-20T00:31:25;32.07;;;14.63;;
31347;SDS011;21711;49.708;18.568;2022-11-20T00:33:53;27.73;;;10.93;;
31347;SDS011;21711;49.708;18.568;2022-11-20T00:36:22;28.90;;;12.40;;
31347;SDS011;21711;49.708;18.568;2022-11-20T00:38:56;31.90;;;12.67;;
31347;SDS011;21711;49.708;18.568;2022-11-20T00:41:25;30.57;;;11.77;;
31347;SDS011;21711;49.708;18.568;2022-11-20T00:43:54;31.67;;;13.13;;
31347;SDS011;21711;49.708;18.568;2022-11-20T00:46:23;25.80;;;11.77;;
31347;SDS011;21711;49.708;18.568;2022-11-20T00:48:53;29.10;;;11.30;;
31347;SDS011;21711;49.708;18.568;2022-11-20T00:51:22;31.77;;;10.50;;
31347;SDS011;21711;49.708;18.568;2022-11-20T00:53:54;27.03;;;12.27;;
31347;SDS011;21711;49.708;18.568;2022-11-20T00:56:23;27.60;;;12.27;;
31347;SDS011;21711;49.708;18.568;2022-11-20T00:58:50;35.87;;;12.63;;
31347;SDS011;21711;49.708;18.568;2022-11-20T01:01:18;32.37;;;12.10;;
31347;SDS011;21711;49.708;18.568;2022-11-20T01:03:51;28.90;;;11.87;;
31347;SDS011;21711;49.708;18.568;2022-11-20T01:06:21;31.30;;;12.03;;
31347;SDS011;21711;49.708;18.568;2022-11-20T01:09:09;33.40;;;12.77;;
31347;SDS011;21711;49.708;18.568;2022-11-20T01:11:41;28.77;;;11.27;;
31347;SDS011;21711;49.708;18.568;2022-11-20T01:14:12;32.13;;;12.70;;
31347;SDS011;21711;49.708;18.568;2022-11-20T01:16:43;33.13;;;12.90;;
31347;SDS011;21711;49.708;18.568;2022-11-20T01:19:17;31.10;;;12.67;;
31347;SDS011;21711;49.708;18.568;2022-11-20T01:21:48;28.50;;;12.07;;
31347;SDS011;21711;49.708;18.568;2022-11-20T01:24:20;33.93;;;11.67;;
31347;SDS011;21711;49.708;18.568;2022-11-20T01:26:49;35.37;;;13.63;;
31347;SDS011;21711;49.708;18.568;2022-11-20T01:29:21;35.23;;;11.40;;
31347;SDS011;21711;49.708;18.568;2022-11-20T01:31:50;29.27;;;11.13;;
31347;SDS011;21711;49.708;18.568;2022-11-20T01:34:19;33.57;;;13.27;;
31347;SDS011;21711;49.708;18.568;2022-11-20T01:36:48;29.07;;;11.07;;
31347;SDS011;21711;49.708;18.568;2022-11-20T01:39:23;33.40;;;12.00;;
31347;SDS011;21711;49.708;18.568;2022-11-20T01:41:53;32.23;;;11.70;;
31347;SDS011;21711;49.708;18.568;2022-11-20T01:44:46;24.43;;;10.77;;
31347;SDS011;21711;49.708;18.568;2022-11-20T01:47:16;28.67;;;10.93;;
31347;SDS011;21711;49.708;18.568;2022-11-20T01:52:42;27.00;;;10.43;;
31347;SDS011;21711;49.708;18.568;2022-11-20T01:55:27;25.13;;;11.17;;
31347;SDS011;21711;49.708;18.568;2022-11-20T01:58:02;31.07;;;11.67;;
31347;SDS011;21711;49.708;18.568;2022-11-20T02:00:31;28.73;;;11.60;;
31347;SDS011;21711;49.708;18.568;2022-11-20T02:03:04;33.57;;;11.77;;
31347;SDS011;21711;49.708;18.568;2022-11-20T02:05:38;33.33;;;12.50;;
31347;SDS011;21711;49.708;18.568;2022-11-20T02:08:28;30.07;;;11.30;;
31347;SDS011;21711;49.708;18.568;2022-11-20T02:10:55;32.30;;;12.40;;
31347;SDS011;21711;49.708;18.568;2022-11-20T02:13:23;33.67;;;12.83;;
31347;SDS011;21711;49.708;18.568;2022-11-20T02:16:10;29.97;;;11.80;;
31347;SDS011;21711;49.708;18.568;2022-11-20T02:18:44;28.03;;;12.00;;
31347;SDS011;21711;49.708;18.568;2022-11-20T02:21:14;37.77;;;13.10;;
31347;SDS011;21711;49.708;18.568;2022-11-20T02:26:31;32.63;;;11.97;;
31347;SDS011;21711;49.708;18.568;2022-11-20T02:29:11;32.37;;;12.93;;
31347;SDS011;21711;49.708;18.568;2022-11-20T02:31:40;34.30;;;13.03;;
31347;SDS011;21711;49.708;18.568;2022-11-20T02:34:10;35.38;;;12.55;;
31347;SDS011;21711;49.708;18.568;2022-11-20T02:36:38;34.10;;;12.67;;
31347;SDS011;21711;49.708;18.568;2022-11-20T02:39:07;33.80;;;12.67;;
31347;SDS011;21711;49.708;18.568;2022-11-20T02:41:38;33.70;;;12.97;;
31347;SDS011;21711;49.708;18.568;2022-11-20T02:44:05;38.40;;;14.37;;
31347;SDS011;21711;49.708;18.568;2022-11-20T02:46:33;28.30;;;11.80;;
31347;SDS011;21711;49.708;18.568;2022-11-20T02:49:01;37.67;;;12.80;;
31347;SDS011;21711;49.708;18.568;2022-11-20T02:51:30;36.83;;;14.93;;
31347;SDS011;21711;49.708;18.568;2022-11-20T02:53:58;34.93;;;13.90;;
31347;SDS011;21711;49.708;18.568;2022-11-20T02:56:26;37.07;;;14.30;;
31347;SDS011;21711;49.708;18.568;2022-11-20T02:58:53;39.27;;;15.17;;
31347;SDS011;21711;49.708;18.568;2022-11-20T03:01:21;35.37;;;14.23;;
31347;SDS011;21711;49.708;18.568;2022-11-20T03:03:49;36.77;;;13.70;;
31347;SDS011;21711;49.708;18.568;2022-11-20T03:06:16;38.20;;;14.80;;
31347;SDS011;21711;49.708;18.568;2022-11-20T03:08:43;36.00;;;15.07;;
31347;SDS011;21711;49.708;18.568;2022-11-20T03:11:11;40.17;;;16.67;;
31347;SDS011;21711;49.708;18.568;2022-11-20T03:13:38;46.43;;;16.53;;
31347;SDS011;21711;49.708;18.568;2022-11-20T03:16:09;47.77;;;16.57;;
31347;SDS011;21711;49.708;18.568;2022-11-20T03:18:43;43.33;;;16.47;;
31347;SDS011;21711;49.708;18.568;2022-11-20T03:21:11;45.67;;;17.37;;
31347;SDS011;21711;49.708;18.568;2022-11-20T03:23:39;42.07;;;17.00;;
31347;SDS011;21711;49.708;18.568;2022-11-20T03:26:08;47.53;;;18.00;;
31347;SDS011;21711;49.708;18.568;2022-11-20T03:28:42;47.67;;;17.83;;
31347;SDS011;21711;49.708;18.568;2022-11-20T03:31:16;50.57;;;19.20;;
31347;SDS011;21711;49.708;18.568;2022-11-20T03:33:45;48.07;;;18.10;;
31347;SDS011;21711;49.708;18.568;2022-11-20T03:36:13;41.90;;;17.23;;
31347;SDS011;21711;49.708;18.568;2022-11-20T03:38:42;48.20;;;17.60;;
31347;SDS011;21711;49.708;18.568;2022-11-20T03:41:11;46.20;;;16.40;;
31347;SDS011;21711;49.708;18.568;2022-11-20T03:43:41;37.40;;;17.10;;
31347;SDS011;21711;49.708;18.568;2022-11-20T03:46:08;35.63;;;15.07;;
31347;SDS011;21711;49.708;18.568;2022-11-20T03:48:35;40.53;;;15.97;;
31347;SDS011;21711;49.708;18.568;2022-11-20T03:51:06;36.60;;;15.77;;
31347;SDS011;21711;49.708;18.568;2022-11-20T03:53:36;34.70;;;14.63;;
31347;SDS011;21711;49.708;18.568;2022-11-20T03:56:04;39.80;;;15.73;;
31347;SDS011;21711;49.708;18.568;2022-11-20T03:58:32;37.53;;;17.27;;
31347;SDS011;21711;49.708;18.568;2022-11-20T04:01:06;38.83;;;15.52;;
31347;SDS011;21711;49.708;18.568;2022-11-20T04:03:43;44.53;;;15.50;;
31347;SDS011;21711;49.708;18.568;2022-11-20T04:06:19;39.83;;;14.97;;
31347;SDS011;21711;49.708;18.568;2022-11-20T04:08:55;34.37;;;13.37;;
31347;SDS011;21711;49.708;18.568;2022-11-20T04:11:24;32.33;;;14.03;;
31347;SDS011;21711;49.708;18.568;2022-11-20T04:13:55;37.30;;;15.10;;
31347;SDS011;21711;49.708;18.568;2022-11-20T04:16:31;37.20;;;14.50;;
31347;SDS011;21711;49.708;18.568;2022-11-20T04:19:03;33.47;;;13.83;;
31347;SDS011;21711;49.708;18.568;2022-11-20T04:21:33;38.65;;;15.25;;
31347;SDS011;21711;49.708;18.568;2022-11-20T04:24:00;36.43;;;15.07;;
31347;SDS011;21711;49.708;18.568;2022-11-20T04:26:28;37.90;;;15.27;;
31347;SDS011;21711;49.708;18.568;2022-11-20T04:28:56;30.53;;;13.00;;
31347;SDS011;21711;49.708;18.568;2022-11-20T04:31:25;38.13;;;14.37;;
31347;SDS011;21711;49.708;18.568;2022-11-20T04:33:55;35.88;;;14.30;;
31347;SDS011;21711;49.708;18.568;2022-11-20T04:36:30;37.87;;;15.47;;
31347;SDS011;21711;49.708;18.568;2022-11-20T04:38:59;41.93;;;17.17;;
31347;SDS011;21711;49.708;18.568;2022-11-20T04:41:30;34.37;;;13.90;;
31347;SDS011;21711;49.708;18.568;2022-11-20T04:44:01;42.17;;;15.37;;
31347;SDS011;21711;49.708;18.568;2022-11-20T04:46:32;37.45;;;14.93;;
31347;SDS011;21711;49.708;18.568;2022-11-20T04:49:07;34.10;;;15.27;;
31347;SDS011;21711;49.708;18.568;2022-11-20T04:51:35;32.13;;;13.20;;
31347;SDS011;21711;49.708;18.568;2022-11-20T04:54:02;33.50;;;14.47;;
31347;SDS011;21711;49.708;18.568;2022-11-20T04:56:30;39.27;;;16.33;;
31347;SDS011;21711;49.708;18.568;2022-11-20T04:58:59;35.53;;;14.67;;
31347;SDS011;21711;49.708;18.568;2022-11-20T05:01:28;34.80;;;13.80;;
31347;SDS011;21711;49.708;18.568;2022-11-20T05:03:56;34.03;;;13.97;;
31347;SDS011;21711;49.708;18.568;2022-11-20T05:06:23;36.23;;;15.27;;
31347;SDS011;21711;49.708;18.568;2022-11-20T05:08:51;34.97;;;13.63;;
31347;SDS011;21711;49.708;18.568;2022-11-20T05:11:19;35.43;;;12.30;;
31347;SDS011;21711;49.708;18.568;2022-11-20T05:13:48;25.50;;;10.80;;
31347;SDS011;21711;49.708;18.568;2022-11-20T05:16:17;24.63;;;11.03;;
31347;SDS011;21711;49.708;18.568;2022-11-20T05:18:50;28.10;;;11.20;;
31347;SDS011;21711;49.708;18.568;2022-11-20T05:21:19;26.05;;;10.48;;
31347;SDS011;21711;49.708;18.568;2022-11-20T05:23:47;32.30;;;12.83;;
31347;SDS011;21711;49.708;18.568;2022-11-20T05:26:15;36.43;;;12.33;;
31347;SDS011;21711;49.708;18.568;2022-11-20T05:28:46;30.63;;;12.20;;
31347;SDS011;21711;49.708;18.568;2022-11-20T05:31:15;31.43;;;13.17;;
31347;SDS011;21711;49.708;18.568;2022-11-20T05:33:52;36.13;;;13.37;;
31347;SDS011;21711;49.708;18.568;2022-11-20T05:36:20;32.93;;;12.87;;
31347;SDS011;21711;49.708;18.568;2022-11-20T05:38:47;32.47;;;13.77;;
31347;SDS011;21711;49.708;18.568;2022-11-20T05:41:17;36.13;;;13.50;;
31347;SDS011;21711;49.708;18.568;2022-11-20T05:43:47;33.50;;;14.03;;
31347;SDS011;21711;49.708;18.568;2022-11-20T05:46:17;35.20;;;14.83;;
31347;SDS011;21711;49.708;18.568;2022-11-20T05:48:54;39.23;;;16.10;;
31347;SDS011;21711;49.708;18.568;2022-11-20T05:51:23;39.37;;;14.93;;
31347;SDS011;21711;49.708;18.568;2022-11-20T05:53:51;35.57;;;15.57;;
31347;SDS011;21711;49.708;18.568;2022-11-20T05:56:19;44.67;;;17.30;;
31347;SDS011;21711;49.708;18.568;2022-11-20T05:58:47;46.07;;;18.13;;
31347;SDS011;21711;49.708;18.568;2022-11-20T06:01:20;53.33;;;19.00;;
31347;SDS011;21711;49.708;18.568;2022-11-20T06:03:50;39.90;;;16.77;;
31347;SDS011;21711;49.708;18.568;2022-11-20T06:06:19;37.27;;;15.70;;
31347;SDS011;21711;49.708;18.568;2022-11-20T06:08:47;28.27;;;11.90;;
31347;SDS011;21711;49.708;18.568;2022-11-20T06:11:15;30.80;;;12.57;;
31347;SDS011;21711;49.708;18.568;2022-11-20T06:13:43;33.77;;;14.33;;
31347;SDS011;21711;49.708;18.568;2022-11-20T06:16:12;37.23;;;14.67;;
31347;SDS011;21711;49.708;18.568;2022-11-20T06:18:42;35.77;;;14.63;;
31347;SDS011;21711;49.708;18.568;2022-11-20T06:21:14;34.67;;;14.63;;
31347;SDS011;21711;49.708;18.568;2022-11-20T06:23:44;38.83;;;15.33;;
31347;SDS011;21711;49.708;18.568;2022-11-20T06:26:13;31.40;;;14.50;;
31347;SDS011;21711;49.708;18.568;2022-11-20T06:28:46;38.83;;;15.93;;
31347;SDS011;21711;49.708;18.568;2022-11-20T06:31:14;37.30;;;15.97;;
31347;SDS011;21711;49.708;18.568;2022-11-20T06:33:44;36.15;;;15.75;;
31347;SDS011;21711;49.708;18.568;2022-11-20T06:36:12;36.87;;;14.87;;
31347;SDS011;21711;49.708;18.568;2022-11-20T06:38:42;38.72;;;15.73;;
31347;SDS011;21711;49.708;18.568;2022-11-20T06:41:10;43.57;;;16.80;;
31347;SDS011;21711;49.708;18.568;2022-11-20T06:43:47;37.50;;;16.00;;
31347;SDS011;21711;49.708;18.568;2022-11-20T06:46:15;40.60;;;16.53;;
31347;SDS011;21711;49.708;18.568;2022-11-20T06:48:45;38.57;;;15.50;;
31347;SDS011;21711;49.708;18.568;2022-11-20T06:51:13;42.93;;;16.83;;
31347;SDS011;21711;49.708;18.568;2022-11-20T06:53:41;39.90;;;16.13;;
31347;SDS011;21711;49.708;18.568;2022-11-20T06:56:09;42.07;;;16.47;;
31347;SDS011;21711;49.708;18.568;2022-11-20T06:58:36;40.40;;;17.77;;
31347;SDS011;21711;49.708;18.568;2022-11-20T07:01:05;39.80;;;15.83;;
31347;SDS011;21711;49.708;18.568;2022-11-20T07:03:36;37.90;;;16.23;;
31347;SDS011;21711;49.708;18.568;2022-11-20T07:06:04;38.87;;;16.20;;
31347;SDS011;21711;49.708;18.568;2022-11-20T07:08:32;36.30;;;16.17;;
31347;SDS011;21711;49.708;18.568;2022-11-20T07:11:00;39.00;;;15.60;;
31347;SDS011;21711;49.708;18.568;2022-11-20T07:13:33;41.10;;;17.33;;
31347;SDS011;21711;49.708;18.568;2022-11-20T07:16:01;38.10;;;15.90;;
31347;SDS011;21711;49.708;18.568;2022-11-20T07:18:31;40.63;;;18.42;;
31347;SDS011;21711;49.708;18.568;2022-11-20T07:21:05;39.00;;;15.30;;
31347;SDS011;21711;49.708;18.568;2022-11-20T07:23:36;38.73;;;15.77;;
31347;SDS011;21711;49.708;18.568;2022-11-20T07:26:06;37.53;;;16.23;;
31347;SDS011;21711;49.708;18.568;2022-11-20T07:28:36;36.67;;;15.20;;
31347;SDS011;21711;49.708;18.568;2022-11-20T07:31:04;40.97;;;15.97;;
31347;SDS011;21711;49.708;18.568;2022-11-20T07:33:33;39.50;;;17.10;;
31347;SDS011;21711;49.708;18.568;2022-11-20T07:36:01;35.17;;;14.30;;
31347;SDS011;21711;49.708;18.568;2022-11-20T07:38:28;32.70;;;14.10;;
31347;SDS011;21711;49.708;18.568;2022-11-20T07:40:56;43.93;;;17.73;;
31347;SDS011;21711;49.708;18.568;2022-11-20T07:43:24;36.13;;;15.00;;
31347;SDS011;21711;49.708;18.568;2022-11-20T07:45:51;34.37;;;14.20;;
31347;SDS011;21711;49.708;18.568;2022-11-20T07:48:22;38.38;;;16.10;;
31347;SDS011;21711;49.708;18.568;2022-11-20T07:50:56;38.93;;;15.53;;
31347;SDS011;21711;49.708;18.568;2022-11-20T07:53:24;38.00;;;16.00;;
31347;SDS011;21711;49.708;18.568;2022-11-20T07:55:51;37.80;;;17.17;;
31347;SDS011;21711;49.708;18.568;2022-11-20T07:58:19;38.10;;;16.40;;
31347;SDS011;21711;49.708;18.568;2022-11-20T08:00:47;36.37;;;14.87;;
31347;SDS011;21711;49.708;18.568;2022-11-20T08:03:15;33.47;;;13.87;;
31347;SDS011;21711;49.708;18.568;2022-11-20T08:05:50;41.60;;;17.20;;
31347;SDS011;21711;49.708;18.568;2022-11-20T08:08:18;45.83;;;18.90;;
31347;SDS011;21711;49.708;18.568;2022-11-20T08:10:45;41.07;;;19.17;;
31347;SDS011;21711;49.708;18.568;2022-11-20T08:13:12;36.83;;;16.97;;
31347;SDS011;21711;49.708;18.568;2022-11-20T08:15:58;37.27;;;15.10;;
31347;SDS011;21711;49.708;18.568;2022-11-20T08:18:25;41.97;;;17.23;;
31347;SDS011;21711;49.708;18.568;2022-11-20T08:21:01;38.67;;;17.43;;
31347;SDS011;21711;49.708;18.568;2022-11-20T08:23:31;39.23;;;17.07;;
31347;SDS011;21711;49.708;18.568;2022-11-20T08:25:59;31.37;;;14.20;;
31347;SDS011;21711;49.708;18.568;2022-11-20T08:28:26;38.17;;;16.57;;
31347;SDS011;21711;49.708;18.568;2022-11-20T08:30:57;40.27;;;17.83;;
31347;SDS011;21711;49.708;18.568;2022-11-20T08:33:28;40.03;;;16.00;;
31347;SDS011;21711;49.708;18.568;2022-11-20T08:36:00;36.63;;;15.43;;
31347;SDS011;21711;49.708;18.568;2022-11-20T08:38:29;41.90;;;16.63;;
31347;SDS011;21711;49.708;18.568;2022-11-20T08:41:00;31.57;;;14.97;;
31347;SDS011;21711;49.708;18.568;2022-11-20T08:46:16;38.60;;;15.13;;
31347;SDS011;21711;49.708;18.568;2022-11-20T08:48:44;42.30;;;17.70;;
31347;SDS011;21711;49.708;18.568;2022-11-20T08:51:11;44.23;;;17.57;;
31347;SDS011;21711;49.708;18.568;2022-11-20T08:53:40;40.23;;;17.73;;
31347;SDS011;21711;49.708;18.568;2022-11-20T08:56:08;30.30;;;13.67;;
31347;SDS011;21711;49.708;18.568;2022-11-20T09:01:26;28.83;;;12.37;;
31347;SDS011;21711;49.708;18.568;2022-11-20T09:03:55;29.17;;;13.87;;
31347;SDS011;21711;49.708;18.568;2022-11-20T09:06:26;31.27;;;13.13;;
31347;SDS011;21711;49.708;18.568;2022-11-20T09:08:53;37.37;;;14.63;;
31347;SDS011;21711;49.708;18.568;2022-11-20T09:11:21;28.43;;;13.07;;
31347;SDS011;21711;49.708;18.568;2022-11-20T09:13:49;30.43;;;12.40;;
31347;SDS011;21711;49.708;18.568;2022-11-20T09:16:17;27.00;;;13.30;;
31347;SDS011;21711;49.708;18.568;2022-11-20T09:18:44;32.97;;;14.37;;
31347;SDS011;21711;49.708;18.568;2022-11-20T09:21:12;36.87;;;16.13;;
31347;SDS011;21711;49.708;18.568;2022-11-20T09:23:40;36.53;;;16.20;;
31347;SDS011;21711;49.708;18.568;2022-11-20T09:26:11;35.80;;;14.50;;
31347;SDS011;21711;49.708;18.568;2022-11-20T09:28:40;36.40;;;16.10;;
31347;SDS011;21711;49.708;18.568;2022-11-20T09:31:08;39.10;;;17.53;;
31347;SDS011;21711;49.708;18.568;2022-11-20T09:33:46;51.70;;;18.50;;
31347;SDS011;21711;49.708;18.568;2022-11-20T09:36:13;42.47;;;19.03;;
31347;SDS011;21711;49.708;18.568;2022-11-20T09:38:40;48.83;;;19.67;;
31347;SDS011;21711;49.708;18.568;2022-11-20T09:44:20;39.83;;;17.30;;
31347;SDS011;21711;49.708;18.568;2022-11-20T09:56:03;45.45;;;19.50;;
31347;SDS011;21711;49.708;18.568;2022-11-20T09:58:33;41.15;;;19.00;;
31347;SDS011;21711;49.708;18.568;2022-11-20T10:01:31;41.72;;;18.65;;
31347;SDS011;21711;49.708;18.568;2022-11-20T10:04:02;50.15;;;18.65;;
31347;SDS011;21711;49.708;18.568;2022-11-20T10:09:59;48.92;;;19.17;;
31347;SDS011;21711;49.708;18.568;2022-11-20T10:17:55;42.22;;;18.80;;
31347;SDS011;21711;49.708;18.568;2022-11-20T10:30:29;53.42;;;21.30;;
31347;SDS011;21711;49.708;18.568;2022-11-20T10:33:16;36.72;;;16.80;;
31347;SDS011;21711;49.708;18.568;2022-11-20T10:35:52;36.47;;;17.15;;
31347;SDS011;21711;49.708;18.568;2022-11-20T10:38:40;40.92;;;17.65;;
31347;SDS011;21711;49.708;18.568;2022-11-20T10:41:27;37.78;;;17.02;;
31347;SDS011;21711;49.708;18.568;2022-11-20T10:44:05;38.85;;;17.98;;
31347;SDS011;21711;49.708;18.568;2022-11-20T10:47:05;43.10;;;17.90;;
31347;SDS011;21711;49.708;18.568;2022-11-20T10:49:38;40.60;;;17.38;;
31347;SDS011;21711;49.708;18.568;2022-11-20T10:52:12;38.15;;;17.35;;
31347;SDS011;21711;49.708;18.568;2022-11-20T10:55:27;34.33;;;16.13;;
31347;SDS011;21711;49.708;18.568;2022-11-20T10:58:03;38.38;;;17.52;;
31347;SDS011;21711;49.708;18.568;2022-11-20T11:00:40;36.08;;;17.50;;
31347;SDS011;21711;49.708;18.568;2022-11-20T11:06:06;38.65;;;17.00;;
31347;SDS011;21711;49.708;18.568;2022-11-20T11:08:56;36.00;;;16.60;;
31347;SDS011;21711;49.708;18.568;2022-11-20T11:11:29;36.05;;;16.83;;
31347;SDS011;21711;49.708;18.568;2022-11-20T11:14:06;37.15;;;16.27;;
31347;SDS011;21711;49.708;18.568;2022-11-20T11:16:41;33.67;;;16.30;;
31347;SDS011;21711;49.708;18.568;2022-11-20T11:19:17;31.45;;;16.35;;
31347;SDS011;21711;49.708;18.568;2022-11-20T11:21:53;39.05;;;16.08;;
31347;SDS011;21711;49.708;18.568;2022-11-20T11:24:26;30.83;;;14.00;;
31347;SDS011;21711;49.708;18.568;2022-11-20T11:27:12;34.70;;;16.38;;
31347;SDS011;21711;49.708;18.568;2022-11-20T11:29:45;31.70;;;14.43;;
31347;SDS011;21711;49.708;18.568;2022-11-20T11:32:14;30.55;;;13.57;;
31347;SDS011;21711;49.708;18.568;2022-11-20T11:35:03;32.08;;;14.93;;
31347;SDS011;21711;49.708;18.568;2022-11-20T11:37:47;28.13;;;12.80;;
31347;SDS011;21711;49.708;18.568;2022-11-20T11:40:15;31.73;;;14.02;;
31347;SDS011;21711;49.708;18.568;2022-11-20T11:42:54;26.27;;;12.40;;
31347;SDS011;21711;49.708;18.568;2022-11-20T11:45:26;29.60;;;12.93;;
31347;SDS011;21711;49.708;18.568;2022-11-20T11:47:55;27.52;;;12.77;;
31347;SDS011;21711;49.708;18.568;2022-11-20T11:50:27;26.27;;;12.38;;
31347;SDS011;21711;49.708;18.568;2022-11-20T11:55:47;25.50;;;12.80;;
31347;SDS011;21711;49.708;18.568;2022-11-20T12:01:16;30.13;;;13.52;;
31347;SDS011;21711;49.708;18.568;2022-11-20T12:04:14;25.45;;;12.65;;
31347;SDS011;21711;49.708;18.568;2022-11-20T12:07:15;29.80;;;13.18;;
31347;SDS011;21711;49.708;18.568;2022-11-20T12:10:20;26.13;;;12.68;;
31347;SDS011;21711;49.708;18.568;2022-11-20T12:13:20;24.27;;;12.63;;
31347;SDS011;21711;49.708;18.568;2022-11-20T12:15:51;23.70;;;11.18;;
31347;SDS011;21711;49.708;18.568;2022-11-20T12:18:21;27.15;;;13.13;;
31347;SDS011;21711;49.708;18.568;2022-11-20T12:20:59;23.45;;;11.80;;
31347;SDS011;21711;49.708;18.568;2022-11-20T12:39:17;21.55;;;11.82;;
31347;SDS011;21711;49.708;18.568;2022-11-20T12:51:09;21.80;;;10.55;;
31347;SDS011;21711;49.708;18.568;2022-11-20T13:08:25;13.68;;;6.85;;
31347;SDS011;21711;49.708;18.568;2022-11-20T13:11:02;15.05;;;7.50;;
31347;SDS011;21711;49.708;18.568;2022-11-20T13:19:04;14.70;;;6.90;;
31347;SDS011;21711;49.708;18.568;2022-11-20T13:21:39;21.50;;;8.02;;
31347;SDS011;21711;49.708;18.568;2022-11-20T13:26:46;18.23;;;8.13;;
31347;SDS011;21711;49.708;18.568;2022-11-20T13:29:17;19.17;;;8.85;;
31347;SDS011;21711;49.708;18.568;2022-11-20T13:31:46;20.55;;;9.05;;
31347;SDS011;21711;49.708;18.568;2022-11-20T13:34:24;19.52;;;8.93;;
31347;SDS011;21711;49.708;18.568;2022-11-20T13:36:54;21.52;;;9.45;;
31347;SDS011;21711;49.708;18.568;2022-11-20T13:39:27;18.00;;;8.70;;
31347;SDS011;21711;49.708;18.568;2022-11-20T13:42:02;20.67;;;8.95;;
31347;SDS011;21711;49.708;18.568;2022-11-20T13:44:53;16.27;;;7.13;;
31347;SDS011;21711;49.708;18.568;2022-11-20T13:47:27;16.38;;;7.63;;
31347;SDS011;21711;49.708;18.568;2022-11-20T13:49:57;20.90;;;8.68;;
31347;SDS011;21711;49.708;18.568;2022-11-20T13:55:10;20.88;;;8.45;;
31347;SDS011;21711;49.708;18.568;2022-11-20T14:01:47;21.48;;;9.25;;
31347;SDS011;21711;49.708;18.568;2022-11-20T14:04:18;21.65;;;9.45;;
31347;SDS011;21711;49.708;18.568;2022-11-20T14:06:55;21.65;;;9.52;;
31347;SDS011;21711;49.708;18.568;2022-11-20T14:09:25;19.90;;;8.50;;
31347;SDS011;21711;49.708;18.568;2022-11-20T14:11:55;27.33;;;10.30;;
31347;SDS011;21711;49.708;18.568;2022-11-20T14:14:24;32.15;;;14.18;;
31347;SDS011;21711;49.708;18.568;2022-11-20T14:17:06;37.15;;;15.95;;
31347;SDS011;21711;49.708;18.568;2022-11-20T14:19:53;36.65;;;18.15;;
31347;SDS011;21711;49.708;18.568;2022-11-20T14:22:25;29.20;;;12.88;;
31347;SDS011;21711;49.708;18.568;2022-11-20T14:25:06;22.35;;;10.82;;
31347;SDS011;21711;49.708;18.568;2022-11-20T14:30:18;22.50;;;8.85;;
31347;SDS011;21711;49.708;18.568;2022-11-20T14:32:49;20.60;;;9.52;;
31347;SDS011;21711;49.708;18.568;2022-11-20T14:35:25;23.35;;;10.70;;
31347;SDS011;21711;49.708;18.568;2022-11-20T14:37:56;21.98;;;9.93;;
31347;SDS011;21711;49.708;18.568;2022-11-20T14:40:32;22.33;;;9.32;;
31347;SDS011;21711;49.708;18.568;2022-11-20T14:43:14;21.83;;;8.73;;
31347;SDS011;21711;49.708;18.568;2022-11-20T14:45:55;20.40;;;8.68;;
31347;SDS011;21711;49.708;18.568;2022-11-20T14:51:28;21.02;;;8.73;;
31347;SDS011;21711;49.708;18.568;2022-11-20T14:54:18;22.40;;;8.85;;
31347;SDS011;21711;49.708;18.568;2022-11-20T14:59:32;20.95;;;8.52;;
31347;SDS011;21711;49.708;18.568;2022-11-20T15:02:19;30.20;;;13.27;;
31347;SDS011;21711;49.708;18.568;2022-11-20T15:04:48;28.55;;;11.25;;
31347;SDS011;21711;49.708;18.568;2022-11-20T15:07:23;22.65;;;9.70;;
31347;SDS011;21711;49.708;18.568;2022-11-20T15:10:04;22.25;;;10.07;;
31347;SDS011;21711;49.708;18.568;2022-11-20T15:15:12;25.25;;;9.85;;
31347;SDS011;21711;49.708;18.568;2022-11-20T15:17:47;19.55;;;9.18;;
31347;SDS011;21711;49.708;18.568;2022-11-20T15:20:14;19.05;;;8.23;;
31347;SDS011;21711;49.708;18.568;2022-11-20T15:22:43;21.88;;;9.00;;
31347;SDS011;21711;49.708;18.568;2022-11-20T15:25:14;22.88;;;8.68;;
31347;SDS011;21711;49.708;18.568;2022-11-20T15:27:44;18.52;;;8.35;;
31347;SDS011;21711;49.708;18.568;2022-11-20T15:30:16;17.65;;;8.32;;
31347;SDS011;21711;49.708;18.568;2022-11-20T15:32:46;22.92;;;9.38;;
31347;SDS011;21711;49.708;18.568;2022-11-20T15:35:14;28.92;;;10.88;;
31347;SDS011;21711;49.708;18.568;2022-11-20T15:37:42;23.70;;;10.32;;
31347;SDS011;21711;49.708;18.568;2022-11-20T15:40:10;24.00;;;9.75;;
31347;SDS011;21711;49.708;18.568;2022-11-20T15:42:38;22.50;;;10.70;;
31347;SDS011;21711;49.708;18.568;2022-11-20T15:45:25;21.58;;;9.38;;
31347;SDS011;21711;49.708;18.568;2022-11-20T15:53:38;22.00;;;9.10;;
31347;SDS011;21711;49.708;18.568;2022-11-20T15:56:11;23.75;;;9.80;;
31347;SDS011;21711;49.708;18.568;2022-11-20T15:58:39;27.25;;;10.68;;
31347;SDS011;21711;49.708;18.568;2022-11-20T16:01:11;22.75;;;10.27;;
31347;SDS011;21711;49.708;18.568;2022-11-20T16:03:41;27.30;;;11.10;;
31347;SDS011;21711;49.708;18.568;2022-11-20T16:06:09;30.98;;;13.25;;
31347;SDS011;21711;49.708;18.568;2022-11-20T16:08:36;29.90;;;13.90;;
31347;SDS011;21711;49.708;18.568;2022-11-20T16:11:03;36.65;;;13.45;;
31347;SDS011;21711;49.708;18.568;2022-11-20T16:13:31;27.27;;;12.18;;
31347;SDS011;21711;49.708;18.568;2022-11-20T16:16:19;27.38;;;11.68;;
31347;SDS011;21711;49.708;18.568;2022-11-20T16:18:59;29.77;;;12.40;;
31347;SDS011;21711;49.708;18.568;2022-11-20T16:21:27;32.45;;;11.75;;
31347;SDS011;21711;49.708;18.568;2022-11-20T16:24:01;36.22;;;13.27;;
31347;SDS011;21711;49.708;18.568;2022-11-20T16:26:32;37.70;;;16.07;;
31347;SDS011;21711;49.708;18.568;2022-11-20T16:29:00;40.63;;;15.30;;
31347;SDS011;21711;49.708;18.568;2022-11-20T16:31:29;42.10;;;16.53;;
31347;SDS011;21711;49.708;18.568;2022-11-20T16:34:01;35.97;;;15.43;;
31347;SDS011;21711;49.708;18.568;2022-11-20T16:36:40;50.15;;;17.83;;
31347;SDS011;21711;49.708;18.568;2022-11-20T16:39:10;38.37;;;16.03;;
31347;SDS011;21711;49.708;18.568;2022-11-20T16:41:38;40.33;;;14.80;;
31347;SDS011;21711;49.708;18.568;2022-11-20T16:44:06;32.70;;;13.60;;